Norwood, GA (30821)

7:06 AM EDT on July 30, 2014 (GMT -0400)
Deerlick Astronomy Village (KGACRAWF2) Elev 558 ft | 33.56 °N, 82.76 °W | Change Station

Current weather conditions updated 60 seconds ago

Clear
Clear
58.7 °F
Feels Like 58.7 °F
N
0.0
Wind Variable Wind from North
Gusts 0.0 mph

Today is forecast to be nearly the same temperature as yesterday.

Today
High -- | Low -- °F
--% Chance of Precip.
Yesterday
High -- | Low -- °F
Precip. -- in
6:41 AM 8:32 PM
Waxing Crescent, 11% visible
Pressure 30.06 in
Visibility 5.0 miles
Clouds Clear
Dew Point 58 °F
Humidity 96%
Rainfall 0.00 in
Snow Depth Not available.
UV 0 out of 12
Pollen 5.30 out of 12
Air Quality Not available.
Flu Activity Not available.
METAR KHQU 301055Z AUTO 00000KT 5SM CLR 17/17 A3006 RMK AO1 T01660166

More Conditions Fewer Conditions

Pressure 30.06 in
Visibility 5.0 miles
Clouds Clear
Dew Point 58 °F
Humidity 96%
Rainfall 0.00 in
Snow Depth Not available.
UV 0 out of 12
Pollen 5.30 out of 12
Air Quality Not available.
Flu Activity Not available.
METAR KHQU 301055Z AUTO 00000KT 5SM CLR 17/17 A3006 RMK AO1 T01660166

More Conditions Fewer Conditions

10-Day Weather Forecast

Almanac

Astronomy

Jul. 30, 2014 Rise Set
Actual Time 6:41 AM EDT 8:32 PM EDT
Civil Twilight 6:14 AM EDT 8:59 PM EDT
Nautical Twilight 5:41 AM EDT 9:32 PM EDT
Astronomical Twilight 5:06 AM EDT 10:07 PM EDT
Moon 9:59 AM EDT 10:28 PM EDT
Length of Visible Light 14h 44m
Length of Day
13h 50m
Tomorrow will be 1m 30s shorter.
Waxing Crescent, 11% of the Moon is Illuminated
Today
Waxing Crescent
Aug 3
First Quarter
Aug 10
Full
Aug 17
Last Quarter
Aug 25
New

Today's Extremes

State Highs State Lows

Community

WunderPhotos

Upload Photos

1,739,039 photos uploaded!

WunderBlogs® & News

Nearby

Snow Depth

Station Depth Elevation
No new snow has been reported.

Earthquake Activity

City Distance Mag. Time & Date
No recent earthquake activity has been reported nearby.
Minimum magnitude displayed is 2.5.

Coastal Water Temperatures

Place Temperature
No Stations Reporting

Nearby Weather Stations

Station Location Temp. Dew Point Humidity Wind Precip. Elev Updated Type
Deerlick Astronomy Village, Sharon, GA 58.7 °F 58 °F 96% North  at  0.0 mph 0.00 in / hr 558 ft 7:05 AM EDT Normal
Deerlick Astronomy Village (BE), Sharon, GA 58.2 °F 58 °F 100% NE  at  0.0 mph 0.00 in / hr 571 ft 7:01 AM EDT Rapid Fire
Dancing Pines, Crawfordville, GA 60.4 °F 58 °F 90% NNW  at  0.0 mph 0.00 in / hr 581 ft 7:00 AM EDT Normal
RAWS WASHINGTON GA, Tignall, GA 62 °F 55 °F 79% NNE  at  1 mph 0.00 in / hr 616 ft 6:02 AM EDT MADIS
Pumpkin Center, Harlem, GA 63.4 °F 60 °F 88% WNW  at  0.0 mph 0.00 in / hr 460 ft 7:06 AM EDT Rapid Fire

Show More Stations Show Fewer Stations